Time;durP1;ratioP1;P1;durP2;ratioP2;P2;SDS_P1;SDS_P2;PMS_P1;PMS_P2;Temp;Humidity;BMP_temperature;BMP_pressure;BME280_temperature;BME280_humidity;BME280_pressure;Samples;Min_cycle;Max_cycle;Signal;HPM_P1;HPM_P2
2022/07/30 00:00:32;;;;;;;;;5.33;4.00;;;;;;;;5019034;28;45427;-75
2022/07/30 00:02:57;;;;;;;;;6.67;6.00;;;;;;;;5018876;28;46615;-75
2022/07/30 00:05:23;;;;;;;;;5.67;5.67;;;;;;;;5018746;28;45196;-75
2022/07/30 00:07:48;;;;;;;;;9.67;6.00;;;;;;;;5019059;28;45152;-75
2022/07/30 00:10:13;;;;;;;;;6.33;5.00;;;;;;;;5019134;28;45392;-75
2022/07/30 00:12:39;;;;;;;;;4.00;4.00;;;;;;;;5018923;28;46968;-75
2022/07/30 00:15:04;;;;;;;;;5.33;5.33;;;;;;;;5018723;28;45407;-76
2022/07/30 00:17:29;;;;;;;;;9.00;7.33;;;;;;;;5018924;28;45282;-76
2022/07/30 00:19:55;;;;;;;;;7.00;7.00;;;;;;;;5018934;28;45283;-75
2022/07/30 00:22:20;;;;;;;;;7.00;5.00;;;;;;;;5018458;28;47332;-75
2022/07/30 00:24:45;;;;;;;;;7.33;7.33;;;;;;;;5018906;28;45256;-76
2022/07/30 00:27:11;;;;;;;;;8.00;8.00;;;;;;;;5018728;28;45333;-76
2022/07/30 00:29:37;;;;;;;;;9.00;7.33;;;;;;;;5018853;28;45325;-76
2022/07/30 00:32:02;;;;;;;;;7.00;5.33;;;;;;;;5018302;28;45570;-75
2022/07/30 00:34:27;;;;;;;;;11.00;10.33;;;;;;;;5018419;28;45284;-75
2022/07/30 00:36:53;;;;;;;;;8.33;7.67;;;;;;;;5018730;28;45279;-75
2022/07/30 00:39:18;;;;;;;;;11.67;6.67;;;;;;;;5018615;28;45295;-75
2022/07/30 00:41:53;;;;;;;;;8.00;7.33;;;;;;;;5018326;28;47183;-75
2022/07/30 00:44:19;;;;;;;;;8.33;8.00;;;;;;;;5018529;28;45455;-75
2022/07/30 00:46:44;;;;;;;;;11.00;11.00;;;;;;;;5017971;28;45449;-76
2022/07/30 00:49:09;;;;;;;;;10.33;7.33;;;;;;;;5018656;28;45433;-75
2022/07/30 00:51:34;;;;;;;;;10.67;7.67;;;;;;;;5018092;28;46568;-75
2022/07/30 00:53:59;;;;;;;;;9.33;8.00;;;;;;;;5018346;28;45456;-76
2022/07/30 00:56:25;;;;;;;;;7.00;7.00;;;;;;;;5017329;28;45409;-76
2022/07/30 00:58:50;;;;;;;;;10.67;8.33;;;;;;;;5018536;28;45394;-76
2022/07/30 01:01:15;;;;;;;;;8.00;6.00;;;;;;;;5018140;28;46248;-75
2022/07/30 01:03:40;;;;;;;;;7.00;6.00;;;;;;;;5017497;28;45421;-75
2022/07/30 01:06:05;;;;;;;;;8.33;7.67;;;;;;;;5016743;28;45343;-75
2022/07/30 01:08:31;;;;;;;;;9.33;8.00;;;;;;;;5016771;28;45464;-75
2022/07/30 01:10:56;;;;;;;;;13.33;8.00;;;;;;;;5016471;28;46359;-75
2022/07/30 01:13:21;;;;;;;;;10.33;9.33;;;;;;;;5016667;28;45279;-76
2022/07/30 01:15:47;;;;;;;;;11.33;8.00;;;;;;;;5016419;28;45458;-75
2022/07/30 01:18:13;;;;;;;;;6.33;6.33;;;;;;;;5016690;28;45387;-75
2022/07/30 01:20:41;;;;;;;;;9.00;9.00;;;;;;;;5016335;28;47402;-75
2022/07/30 01:23:06;;;;;;;;;9.67;9.67;;;;;;;;5016182;28;45248;-75
2022/07/30 01:25:41;;;;;;;;;10.33;9.00;;;;;;;;5016439;28;45831;-75
2022/07/30 01:28:08;;;;;;;;;9.00;7.67;;;;;;;;5016399;28;45296;-75
2022/07/30 01:30:37;;;;;;;;;12.33;8.00;;;;;;;;5015831;28;46415;-75
2022/07/30 01:33:04;;;;;;;;;8.33;7.00;;;;;;;;5016220;28;45379;-75
2022/07/30 01:35:31;;;;;;;;;9.00;8.00;;;;;;;;5016283;28;45521;-75
2022/07/30 01:37:56;;;;;;;;;8.33;8.00;;;;;;;;5016476;28;45387;-75
2022/07/30 01:40:22;;;;;;;;;11.00;8.67;;;;;;;;5015829;28;45546;-75
2022/07/30 01:42:49;;;;;;;;;7.00;7.00;;;;;;;;5016069;28;45351;-76
2022/07/30 01:45:14;;;;;;;;;11.67;11.33;;;;;;;;5016160;28;45418;-76
2022/07/30 01:47:42;;;;;;;;;12.00;9.67;;;;;;;;5016087;28;45559;-76
2022/07/30 01:50:12;;;;;;;;;11.33;11.33;;;;;;;;5015797;28;46545;-75
2022/07/30 01:52:39;;;;;;;;;10.67;9.67;;;;;;;;5015708;28;45462;-75
2022/07/30 01:55:05;;;;;;;;;8.33;6.67;;;;;;;;5016099;28;45248;-75
2022/07/30 01:57:31;;;;;;;;;8.00;8.00;;;;;;;;5015923;28;45315;-75
2022/07/30 02:00:00;;;;;;;;;10.33;8.33;;;;;;;;5015648;28;46560;-75
2022/07/30 02:02:25;;;;;;;;;10.00;9.00;;;;;;;;5015777;28;45374;-75
2022/07/30 02:05:57;;;;;;;;;10.33;9.33;;;;;;;;5112218;27;45519;-76
2022/07/30 02:08:24;;;;;;;;;12.67;11.33;;;;;;;;5115521;27;45280;-76
2022/07/30 02:10:53;;;;;;;;;8.67;8.00;;;;;;;;5115680;27;45344;-76
2022/07/30 02:13:25;;;;;;;;;11.00;8.33;;;;;;;;5115794;27;45296;-76
2022/07/30 02:15:58;;;;;;;;;11.33;8.33;;;;;;;;5115293;27;45541;-76
2022/07/30 02:18:37;;;;;;;;;14.00;10.33;;;;;;;;5115241;27;45471;-76
2022/07/30 02:21:05;;;;;;;;;10.00;9.67;;;;;;;;5115326;27;45287;-76
2022/07/30 02:23:34;;;;;;;;;10.67;10.67;;;;;;;;5115493;27;45310;-76
2022/07/30 02:26:00;;;;;;;;;11.67;8.00;;;;;;;;5115044;27;45190;-76
2022/07/30 02:28:27;;;;;;;;;14.00;9.00;;;;;;;;5115171;27;45374;-76
2022/07/30 02:30:54;;;;;;;;;10.00;9.00;;;;;;;;5115188;27;45451;-75
2022/07/30 02:33:25;;;;;;;;;8.67;8.00;;;;;;;;5115242;27;45401;-76
2022/07/30 02:35:51;;;;;;;;;11.00;10.67;;;;;;;;5114975;27;47561;-76
2022/07/30 02:38:17;;;;;;;;;12.00;10.67;;;;;;;;5115000;27;45303;-76
2022/07/30 02:40:43;;;;;;;;;12.33;9.33;;;;;;;;5115089;27;45366;-76
2022/07/30 02:43:09;;;;;;;;;12.33;12.00;;;;;;;;5115303;27;45578;-76
2022/07/30 02:45:34;;;;;;;;;12.67;10.33;;;;;;;;5114809;27;46430;-76
2022/07/30 02:48:01;;;;;;;;;14.33;10.67;;;;;;;;5114793;27;45310;-76
2022/07/30 02:50:27;;;;;;;;;13.00;11.33;;;;;;;;5115092;27;45337;-76
2022/07/30 02:52:53;;;;;;;;;13.33;11.67;;;;;;;;5114971;27;45291;-76
2022/07/30 02:55:18;;;;;;;;;12.00;9.00;;;;;;;;5114983;27;46712;-76
2022/07/30 02:57:45;;;;;;;;;10.00;10.00;;;;;;;;5114725;27;45201;-76
2022/07/30 03:00:11;;;;;;;;;13.67;13.67;;;;;;;;5114719;27;45343;-76
2022/07/30 03:02:37;;;;;;;;;14.33;13.67;;;;;;;;5114917;27;45318;-75
2022/07/30 03:05:05;;;;;;;;;11.67;11.67;;;;;;;;5114012;27;47470;-75
2022/07/30 03:07:31;;;;;;;;;14.00;12.67;;;;;;;;5114480;27;45446;-76
2022/07/30 03:09:56;;;;;;;;;15.33;10.67;;;;;;;;5114705;27;45285;-75
2022/07/30 03:12:22;;;;;;;;;10.67;10.67;;;;;;;;5114801;27;45383;-75
2022/07/30 03:14:49;;;;;;;;;12.67;12.67;;;;;;;;5114408;27;46503;-75
2022/07/30 03:17:14;;;;;;;;;14.00;11.33;;;;;;;;5099766;27;45279;-75
2022/07/30 03:19:40;;;;;;;;;11.67;11.33;;;;;;;;5100578;27;45363;-76
2022/07/30 03:22:07;;;;;;;;;13.33;11.00;;;;;;;;5100820;27;45255;-76
2022/07/30 03:24:34;;;;;;;;;16.33;12.33;;;;;;;;5100335;27;45482;-75
2022/07/30 03:26:59;;;;;;;;;11.67;11.67;;;;;;;;5100718;27;45378;-75
2022/07/30 03:29:26;;;;;;;;;16.33;12.33;;;;;;;;5100470;27;45382;-76
2022/07/30 03:31:51;;;;;;;;;15.67;14.33;;;;;;;;5100615;27;45377;-76
2022/07/30 03:34:17;;;;;;;;;12.00;12.00;;;;;;;;5100223;27;46569;-76
2022/07/30 03:36:43;;;;;;;;;7.33;4.00;;;;;;;;5100454;27;45431;-76
2022/07/30 03:39:08;;;;;;;;;12.67;11.00;;;;;;;;5100483;27;45277;-75
2022/07/30 03:41:38;;;;;;;;;11.33;9.67;;;;;;;;5100448;27;45308;-75
2022/07/30 03:44:04;;;;;;;;;15.67;14.00;;;;;;;;5100051;27;45522;-76
2022/07/30 03:46:30;;;;;;;;;16.67;12.33;;;;;;;;5100016;27;45362;-76
2022/07/30 03:48:56;;;;;;;;;16.33;13.67;;;;;;;;5100426;27;45448;-75
2022/07/30 03:51:21;;;;;;;;;13.00;11.67;;;;;;;;5100499;27;45366;-76
2022/07/30 03:53:47;;;;;;;;;14.00;12.00;;;;;;;;5100140;27;45678;-76
2022/07/30 03:56:13;;;;;;;;;12.67;7.67;;;;;;;;5100255;27;45319;-75
2022/07/30 03:58:38;;;;;;;;;13.33;13.33;;;;;;;;5100351;27;45368;-76
2022/07/30 04:01:03;;;;;;;;;12.67;12.67;;;;;;;;5100368;27;45529;-76
2022/07/30 04:03:31;;;;;;;;;14.00;12.33;;;;;;;;5099748;27;45467;-76
2022/07/30 04:05:56;;;;;;;;;12.33;12.33;;;;;;;;5100048;27;45411;-76
2022/07/30 04:08:21;;;;;;;;;16.33;14.00;;;;;;;;5099884;27;45310;-76
2022/07/30 04:10:47;;;;;;;;;11.00;11.00;;;;;;;;5100096;27;45346;-76
2022/07/30 04:13:13;;;;;;;;;13.00;12.33;;;;;;;;5099816;27;47193;-76
2022/07/30 04:15:57;;;;;;;;;13.00;11.00;;;;;;;;5099810;27;45409;-75
2022/07/30 04:18:25;;;;;;;;;13.67;10.67;;;;;;;;5099813;27;45338;-76
2022/07/30 04:20:51;;;;;;;;;12.33;10.67;;;;;;;;5100009;27;45374;-76
2022/07/30 04:23:18;;;;;;;;;12.67;10.33;;;;;;;;5099407;27;47161;-76
2022/07/30 04:25:43;;;;;;;;;10.67;10.67;;;;;;;;5099384;27;45374;-76
2022/07/30 04:28:10;;;;;;;;;13.33;12.33;;;;;;;;5098409;27;45290;-76
2022/07/30 04:30:36;;;;;;;;;12.00;12.00;;;;;;;;5099817;27;45600;-75
2022/07/30 04:33:02;;;;;;;;;17.67;15.67;;;;;;;;5099220;27;47127;-76
2022/07/30 04:35:28;;;;;;;;;12.33;10.67;;;;;;;;5099401;27;45391;-76
2022/07/30 04:37:53;;;;;;;;;12.00;12.00;;;;;;;;5099579;27;45260;-76
2022/07/30 04:40:19;;;;;;;;;13.00;11.33;;;;;;;;5099605;27;45314;-75
2022/07/30 04:42:44;;;;;;;;;14.00;12.67;;;;;;;;5099457;27;46525;-76
2022/07/30 04:45:09;;;;;;;;;13.00;10.67;;;;;;;;5097760;27;45421;-76
2022/07/30 04:47:35;;;;;;;;;15.00;14.33;;;;;;;;5099315;27;45330;-76
2022/07/30 04:50:01;;;;;;;;;12.00;12.00;;;;;;;;5099503;27;45283;-75
2022/07/30 04:52:26;;;;;;;;;13.00;11.67;;;;;;;;5098891;27;46509;-75
2022/07/30 04:54:54;;;;;;;;;13.67;10.67;;;;;;;;5099288;27;45413;-75
2022/07/30 04:57:20;;;;;;;;;14.33;13.33;;;;;;;;5099201;27;45261;-75
2022/07/30 04:59:45;;;;;;;;;15.00;13.33;;;;;;;;5099325;27;45196;-76
2022/07/30 05:02:11;;;;;;;;;16.33;13.00;;;;;;;;5099010;27;46366;-75
2022/07/30 05:04:39;;;;;;;;;15.33;13.33;;;;;;;;5098673;27;45274;-76
2022/07/30 05:07:05;;;;;;;;;14.00;12.67;;;;;;;;5099043;27;45387;-76
2022/07/30 05:09:30;;;;;;;;;15.00;12.00;;;;;;;;5099253;27;45383;-75
2022/07/30 05:11:56;;;;;;;;;11.33;11.33;;;;;;;;5098737;27;46193;-75
2022/07/30 05:14:22;;;;;;;;;17.00;14.00;;;;;;;;5098951;27;45303;-75
2022/07/30 05:16:48;;;;;;;;;15.00;14.00;;;;;;;;5098638;27;45549;-76
2022/07/30 05:19:13;;;;;;;;;14.33;12.00;;;;;;;;5098848;27;45415;-76
2022/07/30 05:21:39;;;;;;;;;10.67;10.00;;;;;;;;5098496;27;47253;-76
2022/07/30 05:24:04;;;;;;;;;15.33;14.00;;;;;;;;5098651;27;45369;-76
2022/07/30 05:26:30;;;;;;;;;20.00;14.00;;;;;;;;5098738;27;45200;-76
2022/07/30 05:28:55;;;;;;;;;18.00;15.67;;;;;;;;5098921;27;45351;-75
2022/07/30 05:31:20;;;;;;;;;14.33;13.33;;;;;;;;5098461;27;45663;-75
2022/07/30 05:33:46;;;;;;;;;16.67;14.67;;;;;;;;5098470;27;45335;-76
2022/07/30 05:36:11;;;;;;;;;18.00;14.67;;;;;;;;5098501;27;45200;-76
2022/07/30 05:38:36;;;;;;;;;16.67;15.67;;;;;;;;5098420;27;45466;-76
2022/07/30 05:41:02;;;;;;;;;18.00;16.00;;;;;;;;5098354;27;46347;-76
2022/07/30 05:43:27;;;;;;;;;21.67;19.67;;;;;;;;5098563;27;45245;-75
2022/07/30 05:45:52;;;;;;;;;19.33;16.33;;;;;;;;5098579;27;45285;-76
2022/07/30 05:48:17;;;;;;;;;22.00;17.33;;;;;;;;5098490;27;45391;-75
2022/07/30 05:50:43;;;;;;;;;23.00;16.67;;;;;;;;5098350;27;45444;-76
2022/07/30 05:53:08;;;;;;;;;19.33;18.00;;;;;;;;5098248;27;45449;-76
2022/07/30 05:55:33;;;;;;;;;18.33;16.33;;;;;;;;5098344;27;45302;-76
2022/07/30 05:57:58;;;;;;;;;13.00;13.00;;;;;;;;5098425;27;45327;-76
2022/07/30 06:00:23;;;;;;;;;20.33;16.67;;;;;;;;5097925;27;47185;-76
2022/07/30 06:02:49;;;;;;;;;23.00;19.67;;;;;;;;5098219;27;45418;-76
2022/07/30 06:05:14;;;;;;;;;20.33;19.00;;;;;;;;5097900;27;45536;-76
2022/07/30 06:07:39;;;;;;;;;23.67;22.33;;;;;;;;5097269;27;45353;-76
2022/07/30 06:10:04;;;;;;;;;20.67;18.67;;;;;;;;5097912;27;45499;-76
2022/07/30 06:12:30;;;;;;;;;19.33;16.67;;;;;;;;5098128;27;45185;-76
2022/07/30 06:14:55;;;;;;;;;14.67;11.67;;;;;;;;5098381;27;45333;-76
2022/07/30 06:17:20;;;;;;;;;20.00;17.00;;;;;;;;5098062;27;45473;-76
2022/07/30 06:19:46;;;;;;;;;21.33;18.67;;;;;;;;5097905;27;46795;-76
2022/07/30 06:22:11;;;;;;;;;18.00;17.33;;;;;;;;5097907;27;45318;-76
2022/07/30 06:24:36;;;;;;;;;21.67;18.67;;;;;;;;5097972;27;45453;-76
2022/07/30 06:27:02;;;;;;;;;16.33;16.33;;;;;;;;5098138;27;45428;-76
2022/07/30 06:29:27;;;;;;;;;17.67;15.67;;;;;;;;5097689;27;46319;-76
2022/07/30 06:31:52;;;;;;;;;21.67;18.67;;;;;;;;5097961;27;45360;-76
2022/07/30 06:34:17;;;;;;;;;16.67;15.00;;;;;;;;5097764;27;45501;-76
2022/07/30 06:36:43;;;;;;;;;12.67;12.67;;;;;;;;5097779;27;45481;-76
2022/07/30 06:39:08;;;;;;;;;13.00;12.33;;;;;;;;5097612;27;46356;-76
2022/07/30 06:41:33;;;;;;;;;20.33;16.00;;;;;;;;5097524;27;45502;-76
2022/07/30 06:43:58;;;;;;;;;23.00;19.33;;;;;;;;5097782;27;45343;-76
2022/07/30 06:46:23;;;;;;;;;19.33;17.67;;;;;;;;5097822;27;45492;-76
2022/07/30 06:48:49;;;;;;;;;24.00;20.33;;;;;;;;5097565;27;46603;-76
2022/07/30 06:51:14;;;;;;;;;19.33;16.33;;;;;;;;5099085;27;45426;-77
2022/07/30 06:53:39;;;;;;;;;17.67;14.00;;;;;;;;5101185;27;45255;-76
2022/07/30 06:56:04;;;;;;;;;14.33;13.33;;;;;;;;5101295;27;45402;-76
2022/07/30 06:58:30;;;;;;;;;16.00;15.00;;;;;;;;5100936;27;46350;-76
2022/07/30 07:00:55;;;;;;;;;15.67;13.67;;;;;;;;5100989;27;45441;-77
2022/07/30 07:03:20;;;;;;;;;13.33;13.33;;;;;;;;5101032;27;45268;-76
2022/07/30 07:05:45;;;;;;;;;18.00;13.33;;;;;;;;5100796;27;45421;-76
2022/07/30 07:08:10;;;;;;;;;20.33;15.67;;;;;;;;5100848;27;45284;-76
2022/07/30 07:10:36;;;;;;;;;13.67;13.00;;;;;;;;5100826;27;45333;-76
2022/07/30 07:13:01;;;;;;;;;52.50;42.75;;;;;;;;5101073;27;45307;-76
2022/07/30 07:15:27;;;;;;;;;22.67;15.00;;;;;;;;5100975;27;45352;-76
2022/07/30 07:17:52;;;;;;;;;19.00;16.33;;;;;;;;5100398;27;46603;-76
2022/07/30 07:20:17;;;;;;;;;19.00;16.00;;;;;;;;5100794;27;45437;-76
2022/07/30 07:22:42;;;;;;;;;18.33;16.33;;;;;;;;5100670;27;45437;-77
2022/07/30 07:25:08;;;;;;;;;15.67;13.67;;;;;;;;5100893;27;45489;-76
2022/07/30 07:27:33;;;;;;;;;15.67;15.67;;;;;;;;5100417;27;46301;-76
2022/07/30 07:29:58;;;;;;;;;17.67;17.67;;;;;;;;5100536;27;45317;-76
2022/07/30 07:32:23;;;;;;;;;23.00;17.33;;;;;;;;5100747;27;45421;-76
2022/07/30 07:34:48;;;;;;;;;11.33;11.33;;;;;;;;5100651;27;45303;-76
2022/07/30 07:37:14;;;;;;;;;17.67;16.67;;;;;;;;5100407;27;45400;-76
2022/07/30 07:39:40;;;;;;;;;15.67;15.67;;;;;;;;5100246;27;45260;-76
2022/07/30 07:42:05;;;;;;;;;18.33;17.00;;;;;;;;5100354;27;45525;-76
2022/07/30 07:44:30;;;;;;;;;18.00;17.33;;;;;;;;5100441;27;45387;-76
2022/07/30 07:46:55;;;;;;;;;17.67;16.00;;;;;;;;5100018;27;46591;-76
2022/07/30 07:49:21;;;;;;;;;27.00;23.67;;;;;;;;5100133;27;45434;-76
2022/07/30 07:51:46;;;;;;;;;12.00;12.00;;;;;;;;5100317;27;45386;-76
2022/07/30 07:54:11;;;;;;;;;11.67;11.00;;;;;;;;5100518;27;45398;-76
2022/07/30 07:56:36;;;;;;;;;15.67;14.67;;;;;;;;5099985;27;45490;-76
2022/07/30 07:59:02;;;;;;;;;11.00;11.00;;;;;;;;5100124;27;45370;-76
2022/07/30 08:01:27;;;;;;;;;14.67;12.00;;;;;;;;5100171;27;45320;-75
2022/07/30 08:03:52;;;;;;;;;12.00;11.00;;;;;;;;5099696;27;45512;-76
2022/07/30 08:06:17;;;;;;;;;12.33;9.33;;;;;;;;5099883;27;46330;-76
2022/07/30 08:08:42;;;;;;;;;10.33;8.33;;;;;;;;5099935;27;45442;-76
2022/07/30 08:11:08;;;;;;;;;8.33;8.33;;;;;;;;5099945;27;45315;-76
2022/07/30 08:13:33;;;;;;;;;16.00;10.67;;;;;;;;5100207;27;45322;-75
2022/07/30 08:16:00;;;;;;;;;10.33;10.33;;;;;;;;5099784;27;45447;-75
2022/07/30 08:18:25;;;;;;;;;12.67;10.33;;;;;;;;5099814;27;45295;-75
2022/07/30 08:20:50;;;;;;;;;12.33;9.00;;;;;;;;5099717;27;45315;-75
2022/07/30 08:23:16;;;;;;;;;10.33;10.00;;;;;;;;5099924;27;45477;-75
2022/07/30 08:25:42;;;;;;;;;7.67;6.67;;;;;;;;5099636;27;45322;-76
2022/07/30 08:28:07;;;;;;;;;6.33;6.33;;;;;;;;5099480;27;45299;-75
2022/07/30 08:30:32;;;;;;;;;6.67;5.33;;;;;;;;5099768;27;45223;-75
2022/07/30 08:32:58;;;;;;;;;9.00;6.00;;;;;;;;5098355;27;45556;-75
2022/07/30 08:35:23;;;;;;;;;7.00;5.00;;;;;;;;5099421;27;46322;-76
2022/07/30 08:37:48;;;;;;;;;6.00;6.00;;;;;;;;5099403;27;45356;-75
2022/07/30 08:40:13;;;;;;;;;8.00;6.00;;;;;;;;5099440;27;45306;-76
2022/07/30 08:42:39;;;;;;;;;4.00;3.00;;;;;;;;5099679;27;45323;-76
2022/07/30 08:45:05;;;;;;;;;7.00;5.33;;;;;;;;5099214;27;46445;-76
2022/07/30 08:47:31;;;;;;;;;5.33;5.33;;;;;;;;5099230;27;45361;-76
2022/07/30 08:50:00;;;;;;;;;7.67;5.33;;;;;;;;5099114;27;45360;-76
2022/07/30 08:52:26;;;;;;;;;4.67;4.67;;;;;;;;5099229;27;45284;-76
2022/07/30 08:54:51;;;;;;;;;7.00;5.00;;;;;;;;5099135;27;45446;-75
2022/07/30 08:57:16;;;;;;;;;6.33;6.33;;;;;;;;5099036;27;45400;-75
2022/07/30 08:59:42;;;;;;;;;9.00;6.00;;;;;;;;5099381;27;45288;-75
2022/07/30 09:02:07;;;;;;;;;6.33;6.33;;;;;;;;5099455;27;45481;-76
2022/07/30 09:04:32;;;;;;;;;7.00;5.33;;;;;;;;5098386;27;46662;-76
2022/07/30 09:06:57;;;;;;;;;5.00;5.00;;;;;;;;5099238;27;45447;-75
2022/07/30 09:09:23;;;;;;;;;12.00;7.00;;;;;;;;5099052;27;45395;-75
2022/07/30 09:11:48;;;;;;;;;6.67;6.00;;;;;;;;5098992;27;45437;-75
2022/07/30 09:14:13;;;;;;;;;5.00;3.67;;;;;;;;5098418;27;45482;-75
2022/07/30 09:16:39;;;;;;;;;7.00;4.00;;;;;;;;5098260;27;45362;-76
2022/07/30 09:19:22;;;;;;;;;5.00;4.67;;;;;;;;5098581;27;45323;-76
2022/07/30 09:21:58;;;;;;;;;3.67;3.00;;;;;;;;5098790;27;45380;-75
2022/07/30 09:24:23;;;;;;;;;11.00;5.00;;;;;;;;5098521;27;45362;-76
2022/07/30 09:26:54;;;;;;;;;6.00;4.33;;;;;;;;5098426;27;45453;-76
2022/07/30 09:29:23;;;;;;;;;5.00;2.67;;;;;;;;5098597;27;45312;-75
2022/07/30 09:31:53;;;;;;;;;5.33;4.33;;;;;;;;5098728;27;45391;-75
2022/07/30 09:34:25;;;;;;;;;4.00;4.00;;;;;;;;5098397;27;47323;-75
2022/07/30 09:36:50;;;;;;;;;6.67;5.00;;;;;;;;5098623;27;45382;-76
2022/07/30 09:39:26;;;;;;;;;4.00;4.00;;;;;;;;5098556;27;45394;-76
2022/07/30 09:41:52;;;;;;;;;4.00;2.67;;;;;;;;5098702;27;45261;-76
2022/07/30 09:44:24;;;;;;;;;6.67;3.00;;;;;;;;5098295;27;45286;-76
2022/07/30 09:46:50;;;;;;;;;3.00;2.33;;;;;;;;5098500;27;45496;-76
2022/07/30 09:49:17;;;;;;;;;5.00;4.33;;;;;;;;5098348;27;45445;-76
2022/07/30 09:51:42;;;;;;;;;4.33;4.33;;;;;;;;5098415;27;45479;-77
2022/07/30 09:54:07;;;;;;;;;4.00;4.00;;;;;;;;5098005;27;45239;-76
2022/07/30 09:56:32;;;;;;;;;8.00;6.33;;;;;;;;5098154;27;45349;-76
2022/07/30 09:58:57;;;;;;;;;4.00;4.00;;;;;;;;5098546;27;45446;-75
2022/07/30 10:01:23;;;;;;;;;4.00;4.00;;;;;;;;5098562;27;45555;-75
2022/07/30 10:03:48;;;;;;;;;6.00;4.33;;;;;;;;5097746;27;45800;-75
2022/07/30 10:06:14;;;;;;;;;5.00;4.00;;;;;;;;5098196;27;45211;-75
2022/07/30 10:08:39;;;;;;;;;5.67;2.67;;;;;;;;5098064;27;45277;-76
2022/07/30 10:11:05;;;;;;;;;3.00;3.00;;;;;;;;5098369;27;45202;-76
2022/07/30 10:13:31;;;;;;;;;2.00;2.00;;;;;;;;5097978;27;46609;-72
2022/07/30 10:15:57;;;;;;;;;4.67;3.00;;;;;;;;5098003;27;45297;-74
2022/07/30 10:18:22;;;;;;;;;4.33;3.67;;;;;;;;5098056;27;45422;-73
2022/07/30 10:20:47;;;;;;;;;3.67;3.67;;;;;;;;5098176;27;45387;-74
2022/07/30 10:23:13;;;;;;;;;2.33;2.33;;;;;;;;5097915;27;45609;-73
2022/07/30 10:25:39;;;;;;;;;6.67;3.67;;;;;;;;5098589;27;45449;-73
2022/07/30 10:28:05;;;;;;;;;3.00;3.00;;;;;;;;5101695;27;45339;-72
2022/07/30 10:30:32;;;;;;;;;2.67;2.67;;;;;;;;5101740;27;45415;-73
2022/07/30 10:32:58;;;;;;;;;3.00;3.00;;;;;;;;5101264;27;46647;-73
2022/07/30 10:35:24;;;;;;;;;29.25;27.75;;;;;;;;5101180;27;45303;-73
2022/07/30 10:37:49;;;;;;;;;3.33;3.33;;;;;;;;5101485;27;45278;-73
2022/07/30 10:40:34;;;;;;;;;5.33;4.33;;;;;;;;5101434;27;45450;-73
2022/07/30 10:43:15;;;;;;;;;3.00;3.00;;;;;;;;5101157;27;47240;-72
2022/07/30 10:45:51;;;;;;;;;2.67;2.67;;;;;;;;5101286;27;45452;-76
2022/07/30 10:48:18;;;;;;;;;15.67;13.67;;;;;;;;5101135;27;45487;-73
2022/07/30 10:50:51;;;;;;;;;3.67;2.00;;;;;;;;5101247;27;45178;-72
2022/07/30 10:53:35;;;;;;;;;2.00;2.00;;;;;;;;5100966;27;45535;-73
2022/07/30 10:56:10;;;;;;;;;7.33;6.33;;;;;;;;5101053;27;45425;-72
2022/07/30 10:58:54;;;;;;;;;3.00;3.00;;;;;;;;5101108;27;45446;-73
2022/07/30 11:01:20;;;;;;;;;3.67;3.67;;;;;;;;5101109;27;45475;-73
2022/07/30 11:04:05;;;;;;;;;2.33;2.33;;;;;;;;5100595;27;45330;-74
2022/07/30 11:06:30;;;;;;;;;4.33;3.00;;;;;;;;5100896;27;45504;-75
2022/07/30 11:08:55;;;;;;;;;2.67;2.67;;;;;;;;5100945;27;45391;-74
2022/07/30 11:11:20;;;;;;;;;2.67;2.67;;;;;;;;5101243;27;45304;-74
2022/07/30 11:13:50;;;;;;;;;5.33;3.67;;;;;;;;5100877;27;46515;-74
2022/07/30 11:16:16;;;;;;;;;3.00;3.00;;;;;;;;5100783;27;45323;-73
2022/07/30 11:19:02;;;;;;;;;3.00;3.00;;;;;;;;5100732;27;45350;-72
2022/07/30 11:21:28;;;;;;;;;3.33;3.33;;;;;;;;5096741;27;45639;-72
2022/07/30 11:23:53;;;;;;;;;2.67;2.67;;;;;;;;5099191;27;47338;-74
2022/07/30 11:26:37;;;;;;;;;5.33;3.67;;;;;;;;5100832;27;45269;-72
2022/07/30 11:29:02;;;;;;;;;3.00;2.67;;;;;;;;5100621;27;45466;-72
2022/07/30 11:31:32;;;;;;;;;5.00;3.67;;;;;;;;5101014;27;45235;-72
2022/07/30 11:34:16;;;;;;;;;3.67;3.67;;;;;;;;5100269;27;46594;-72
2022/07/30 11:36:59;;;;;;;;;4.67;2.67;;;;;;;;5099889;27;45426;-73
2022/07/30 11:39:44;;;;;;;;;4.00;4.00;;;;;;;;5100520;27;45315;-75
2022/07/30 11:42:23;;;;;;;;;3.67;3.67;;;;;;;;5100427;27;45345;-78
2022/07/30 11:44:48;;;;;;;;;3.00;1.33;;;;;;;;5100244;27;45464;-76
2022/07/30 11:47:14;;;;;;;;;4.67;4.00;;;;;;;;5100270;27;45315;-77
2022/07/30 11:49:39;;;;;;;;;4.33;3.00;;;;;;;;5100388;27;45286;-76
2022/07/30 11:52:05;;;;;;;;;5.00;3.00;;;;;;;;5100519;27;45366;-75
2022/07/30 11:54:30;;;;;;;;;4.67;3.00;;;;;;;;5100178;27;46452;-76
2022/07/30 11:56:58;;;;;;;;;5.33;3.67;;;;;;;;5100320;27;45313;-74
2022/07/30 11:59:23;;;;;;;;;3.00;3.00;;;;;;;;5100174;27;45420;-76
2022/07/30 12:01:55;;;;;;;;;3.67;3.67;;;;;;;;5100230;27;45242;-76
2022/07/30 12:04:20;;;;;;;;;2.33;2.33;;;;;;;;5099451;27;46137;-74
2022/07/30 12:06:47;;;;;;;;;3.00;3.00;;;;;;;;5099873;27;45358;-74
2022/07/30 12:09:20;;;;;;;;;3.00;3.00;;;;;;;;5100098;27;45378;-77
2022/07/30 12:11:45;;;;;;;;;4.00;4.00;;;;;;;;5100248;27;45430;-76
2022/07/30 12:14:10;;;;;;;;;4.33;4.00;;;;;;;;5099775;27;46154;-77
2022/07/30 12:16:35;;;;;;;;;3.00;3.00;;;;;;;;5099753;27;45395;-76
2022/07/30 12:19:04;;;;;;;;;6.00;3.00;;;;;;;;5099974;27;45208;-76
2022/07/30 12:21:30;;;;;;;;;7.33;7.33;;;;;;;;5099913;27;45366;-76
2022/07/30 12:23:57;;;;;;;;;4.00;4.00;;;;;;;;5099697;27;46243;-76
2022/07/30 12:26:23;;;;;;;;;4.67;3.67;;;;;;;;5099646;27;45347;-76
2022/07/30 12:28:49;;;;;;;;;3.00;2.00;;;;;;;;5099600;27;45320;-75
2022/07/30 12:31:15;;;;;;;;;2.67;2.67;;;;;;;;5100053;27;45323;-75
2022/07/30 12:33:40;;;;;;;;;3.00;3.00;;;;;;;;5099513;27;45636;-76
2022/07/30 12:36:05;;;;;;;;;5.33;2.33;;;;;;;;5099518;27;45228;-76
2022/07/30 12:38:41;;;;;;;;;3.67;3.67;;;;;;;;5099654;27;45215;-76
2022/07/30 12:41:06;;;;;;;;;6.67;5.33;;;;;;;;5099746;27;45276;-75
2022/07/30 12:43:50;;;;;;;;;2.67;2.67;;;;;;;;5099383;27;45949;-76
2022/07/30 12:46:20;;;;;;;;;3.00;3.00;;;;;;;;5099497;27;45297;-76
2022/07/30 12:48:49;;;;;;;;;4.00;4.00;;;;;;;;5098466;27;45411;-76
2022/07/30 12:51:14;;;;;;;;;3.67;3.67;;;;;;;;5099415;27;45486;-76
2022/07/30 12:53:39;;;;;;;;;3.00;3.00;;;;;;;;5099136;27;46020;-76
2022/07/30 12:56:14;;;;;;;;;9.67;9.67;;;;;;;;5099191;27;45222;-75
2022/07/30 12:58:40;;;;;;;;;5.67;4.00;;;;;;;;5097664;27;45442;-76
2022/07/30 13:01:05;;;;;;;;;5.67;4.00;;;;;;;;5099292;27;45498;-77
2022/07/30 13:03:40;;;;;;;;;4.33;4.33;;;;;;;;5098798;27;46484;-77
2022/07/30 13:06:12;;;;;;;;;3.00;3.00;;;;;;;;5098792;27;45402;-76
2022/07/30 13:08:54;;;;;;;;;3.67;3.67;;;;;;;;5099216;27;45340;-76
2022/07/30 13:11:21;;;;;;;;;2.67;2.00;;;;;;;;5099319;27;45322;-75
2022/07/30 13:13:47;;;;;;;;;4.00;2.00;;;;;;;;5098775;27;46471;-76
2022/07/30 13:16:12;;;;;;;;;3.00;3.00;;;;;;;;5098767;27;45335;-77
2022/07/30 13:18:37;;;;;;;;;2.67;2.00;;;;;;;;5099050;27;45371;-76
2022/07/30 13:21:03;;;;;;;;;1.00;1.00;;;;;;;;5099061;27;45363;-77
2022/07/30 13:23:29;;;;;;;;;3.00;2.00;;;;;;;;5098721;27;45384;-77
2022/07/30 13:25:54;;;;;;;;;3.67;3.00;;;;;;;;5098587;27;45405;-76
2022/07/30 13:28:20;;;;;;;;;4.00;2.33;;;;;;;;5098876;27;45234;-75
2022/07/30 13:30:46;;;;;;;;;3.00;3.00;;;;;;;;5099057;27;45371;-75
2022/07/30 13:33:11;;;;;;;;;3.67;2.67;;;;;;;;5098633;27;45319;-75
2022/07/30 13:35:36;;;;;;;;;3.00;3.00;;;;;;;;5098681;27;45331;-75
2022/07/30 13:38:02;;;;;;;;;3.67;3.67;;;;;;;;5098655;27;45162;-76
2022/07/30 13:40:30;;;;;;;;;2.00;2.00;;;;;;;;5098743;27;45450;-75
2022/07/30 13:42:56;;;;;;;;;2.00;2.00;;;;;;;;5098355;27;45573;-73
2022/07/30 13:45:21;;;;;;;;;2.00;2.00;;;;;;;;5098171;27;45514;-74
2022/07/30 13:47:47;;;;;;;;;2.00;2.00;;;;;;;;5098636;27;45422;-76
2022/07/30 13:50:13;;;;;;;;;5.00;5.00;;;;;;;;5098505;27;45513;-75
2022/07/30 13:52:38;;;;;;;;;3.00;3.00;;;;;;;;5098043;27;48589;-76
2022/07/30 13:55:03;;;;;;;;;3.00;3.00;;;;;;;;5098400;27;45268;-75
2022/07/30 13:57:29;;;;;;;;;3.33;3.33;;;;;;;;5098535;27;45268;-76
2022/07/30 13:59:54;;;;;;;;;1.00;1.00;;;;;;;;5098647;27;45208;-74
2022/07/30 14:02:19;;;;;;;;;1.33;1.33;;;;;;;;5098194;27;46164;-76
2022/07/30 14:04:44;;;;;;;;;1.00;1.00;;;;;;;;5097678;27;45400;-75
2022/07/30 14:07:09;;;;;;;;;2.00;2.00;;;;;;;;5098263;27;45328;-76
2022/07/30 14:09:35;;;;;;;;;1.33;1.33;;;;;;;;5098387;27;45363;-75
2022/07/30 14:12:00;;;;;;;;;1.00;1.00;;;;;;;;5097957;27;46079;-75
2022/07/30 14:14:25;;;;;;;;;1.00;1.00;;;;;;;;5098139;27;45357;-75
2022/07/30 14:16:51;;;;;;;;;2.67;2.00;;;;;;;;5098203;27;45422;-75
2022/07/30 14:19:17;;;;;;;;;3.00;2.00;;;;;;;;5098431;27;45411;-75
2022/07/30 14:21:42;;;;;;;;;2.00;2.00;;;;;;;;5097892;27;45361;-76
2022/07/30 14:24:10;;;;;;;;;2.00;2.00;;;;;;;;5097825;27;45231;-74
2022/07/30 14:26:36;;;;;;;;;4.00;2.67;;;;;;;;5098163;27;45322;-75
2022/07/30 14:29:01;;;;;;;;;3.00;3.00;;;;;;;;5098040;27;45276;-76